createdAt,value
2022-09-07T00:02:48.617Z,101200.0
2022-09-07T00:07:48.529Z,101190.0
2022-09-07T00:17:48.528Z,101160.0
2022-09-07T00:22:48.526Z,101170.0
2022-09-07T00:32:48.548Z,101160.0
2022-09-07T00:37:48.540Z,101150.0
2022-09-07T00:42:48.534Z,101130.0
2022-09-07T00:47:48.542Z,101150.0
2022-09-07T00:52:48.536Z,101150.0
2022-09-07T00:57:48.530Z,101140.0
2022-09-07T01:02:48.755Z,101150.0
2022-09-07T01:17:48.540Z,101170.0
2022-09-07T01:22:48.551Z,101160.0
2022-09-07T01:33:01.925Z,101160.0
2022-09-07T01:37:48.541Z,101170.0
2022-09-07T01:42:48.554Z,101170.0
2022-09-07T01:47:48.554Z,101170.0
2022-09-07T01:52:48.557Z,101160.0
2022-09-07T01:57:48.553Z,101140.0
2022-09-07T02:02:48.800Z,101150.0
2022-09-07T02:07:48.556Z,101150.0
2022-09-07T02:17:48.572Z,101140.0
2022-09-07T02:22:48.559Z,101150.0
2022-09-07T02:27:48.568Z,101140.0
2022-09-07T02:32:48.571Z,101140.0
2022-09-07T02:37:48.569Z,101140.0
2022-09-07T02:42:48.579Z,101150.0
2022-09-07T02:48:01.928Z,101140.0
2022-09-07T02:52:48.579Z,101140.0
2022-09-07T02:57:48.569Z,101130.0
2022-09-07T03:02:48.630Z,101120.0
2022-09-07T03:08:01.939Z,101120.0
2022-09-07T03:12:48.583Z,101110.0
2022-09-07T03:17:48.584Z,101110.0
2022-09-07T03:22:48.591Z,101130.0
2022-09-07T03:27:48.587Z,101110.0
2022-09-07T03:32:48.587Z,101100.0
2022-09-07T03:37:48.596Z,101100.0
2022-09-07T03:42:48.599Z,101110.0
2022-09-07T03:47:48.590Z,101120.0
2022-09-07T03:52:48.595Z,101120.0
2022-09-07T03:57:48.604Z,101110.0
2022-09-07T04:02:48.659Z,101120.0
2022-09-07T04:07:48.612Z,101110.0
2022-09-07T04:12:48.602Z,101120.0
2022-09-07T04:17:48.600Z,101110.0
2022-09-07T04:22:52.494Z,101100.0
2022-09-07T04:27:48.607Z,101090.0
2022-09-07T04:32:48.607Z,101090.0
2022-09-07T04:42:48.611Z,101100.0
2022-09-07T04:47:48.615Z,101090.0
2022-09-07T04:52:48.616Z,101110.0
2022-09-07T04:57:48.620Z,101120.0
2022-09-07T05:02:48.653Z,101120.0
2022-09-07T05:07:48.623Z,101120.0
2022-09-07T05:12:48.620Z,101130.0
2022-09-07T05:17:48.626Z,101140.0
2022-09-07T05:22:48.629Z,101140.0
2022-09-07T05:27:48.631Z,101130.0
2022-09-07T05:32:48.631Z,101110.0
2022-09-07T05:37:48.633Z,101110.0
2022-09-07T05:42:48.637Z,101110.0
2022-09-07T05:47:48.632Z,101120.0
2022-09-07T05:52:48.632Z,101120.0
2022-09-07T06:02:48.739Z,101120.0
2022-09-07T06:07:48.644Z,101120.0
2022-09-07T06:12:49.408Z,101130.0
2022-09-07T06:17:48.645Z,101120.0
2022-09-07T06:22:48.651Z,101130.0
2022-09-07T06:27:48.658Z,101130.0
2022-09-07T06:32:48.655Z,101130.0
2022-09-07T06:37:48.650Z,101140.0
2022-09-07T06:42:48.660Z,101140.0
2022-09-07T06:47:48.664Z,101140.0
2022-09-07T06:57:48.666Z,101150.0
2022-09-07T07:02:48.716Z,101150.0
2022-09-07T07:07:48.677Z,101150.0
2022-09-07T07:12:48.960Z,101160.0
2022-09-07T07:17:53.640Z,101170.0
2022-09-07T07:22:48.697Z,101170.0
2022-09-07T07:27:48.682Z,101160.0
2022-09-07T07:37:48.678Z,101170.0
2022-09-07T07:42:48.679Z,101180.0
2022-09-07T07:47:48.688Z,101170.0
2022-09-07T07:52:50.379Z,101180.0
2022-09-07T07:57:48.699Z,101180.0
2022-09-07T08:02:48.744Z,101180.0
2022-09-07T08:07:48.698Z,101180.0
2022-09-07T08:12:48.708Z,101180.0
2022-09-07T08:17:48.718Z,101180.0
2022-09-07T08:22:48.701Z,101190.0
2022-09-07T08:27:48.709Z,101190.0
2022-09-07T08:32:48.711Z,101190.0
2022-09-07T08:37:48.710Z,101190.0
2022-09-07T08:42:48.716Z,101200.0
2022-09-07T08:52:48.726Z,101190.0
2022-09-07T08:57:48.719Z,101210.0
2022-09-07T09:06:11.037Z,101210.0
2022-09-07T09:07:48.725Z,101220.0
2022-09-07T09:12:48.732Z,101220.0
2022-09-07T09:22:48.732Z,101220.0
2022-09-07T09:27:48.741Z,101220.0
2022-09-07T09:32:48.743Z,101220.0
2022-09-07T09:37:48.755Z,101220.0
2022-09-07T09:42:48.747Z,101220.0
2022-09-07T09:47:48.789Z,101220.0
2022-09-07T09:52:51.812Z,101220.0
2022-09-07T10:07:48.758Z,101210.0
2022-09-07T10:12:48.761Z,101220.0
2022-09-07T10:17:48.769Z,101210.0
2022-09-07T10:22:51.485Z,101200.0
2022-09-07T10:27:48.774Z,101200.0
2022-09-07T10:32:48.769Z,101210.0
2022-09-07T10:37:48.769Z,101200.0
2022-09-07T10:47:48.786Z,101200.0
2022-09-07T10:52:48.786Z,101200.0
2022-09-07T10:57:49.280Z,101200.0
2022-09-07T11:07:48.788Z,101180.0
2022-09-07T11:12:48.794Z,101190.0
2022-09-07T11:17:52.808Z,101190.0
2022-09-07T11:22:48.800Z,101180.0
2022-09-07T11:27:48.806Z,101180.0
2022-09-07T11:32:48.808Z,101170.0
2022-09-07T11:37:48.807Z,101170.0
2022-09-07T11:42:48.840Z,101170.0
2022-09-07T11:47:48.818Z,101170.0
2022-09-07T11:52:53.489Z,101160.0
2022-09-07T11:57:51.427Z,101150.0
2022-09-07T12:02:59.394Z,101160.0
2022-09-07T12:07:48.822Z,101170.0
2022-09-07T12:12:48.826Z,101160.0
2022-09-07T12:17:48.823Z,101160.0
2022-09-07T12:22:48.828Z,101150.0
2022-09-07T12:27:48.828Z,101150.0
2022-09-07T12:32:56.470Z,101150.0
2022-09-07T12:37:48.832Z,101150.0
2022-09-07T12:42:48.846Z,101130.0
2022-09-07T12:47:49.276Z,101120.0
2022-09-07T12:52:48.840Z,101130.0
2022-09-07T12:57:48.848Z,101130.0
2022-09-07T13:02:49.016Z,101130.0
2022-09-07T13:07:48.857Z,101100.0
2022-09-07T13:12:57.380Z,101100.0
2022-09-07T13:17:48.859Z,101100.0
2022-09-07T13:22:48.855Z,101090.0
2022-09-07T13:27:48.862Z,101100.0
2022-09-07T13:37:48.892Z,101090.0
2022-09-07T13:42:48.866Z,101080.0
2022-09-07T13:47:48.867Z,101070.0
2022-09-07T13:52:48.873Z,101070.0
2022-09-07T13:57:48.876Z,101070.0
2022-09-07T14:02:52.070Z,101070.0
2022-09-07T14:07:48.877Z,101070.0
2022-09-07T14:12:48.879Z,101060.0
2022-09-07T14:17:48.891Z,101060.0
2022-09-07T14:22:52.617Z,101060.0
2022-09-07T14:27:48.883Z,101060.0
2022-09-07T14:32:48.890Z,101060.0
2022-09-07T14:37:48.893Z,101050.0
2022-09-07T14:42:49.815Z,101060.0
2022-09-07T14:47:48.891Z,101060.0
2022-09-07T14:53:34.295Z,101050.0
2022-09-07T14:57:49.148Z,101050.0
2022-09-07T15:02:48.903Z,101040.0
2022-09-07T15:07:48.903Z,101050.0
2022-09-07T15:12:48.901Z,101050.0
2022-09-07T15:17:48.992Z,101040.0
2022-09-07T15:22:48.908Z,101050.0
2022-09-07T15:27:48.910Z,101040.0
2022-09-07T15:32:49.485Z,101040.0
2022-09-07T15:47:52.214Z,101040.0
2022-09-07T15:52:48.912Z,101030.0
2022-09-07T15:58:05.113Z,101030.0
2022-09-07T16:03:07.684Z,101030.0
2022-09-07T16:17:53.612Z,101020.0
2022-09-07T16:27:49.938Z,101010.0
2022-09-07T16:32:48.977Z,101020.0
2022-09-07T16:42:48.944Z,101010.0
2022-09-07T16:47:48.937Z,101000.0
2022-09-07T16:52:48.940Z,101000.0
2022-09-07T17:02:48.943Z,101020.0
2022-09-07T17:07:48.945Z,101000.0
2022-09-07T17:12:48.951Z,101010.0
2022-09-07T17:17:48.947Z,101010.0
2022-09-07T17:22:48.945Z,101010.0
2022-09-07T17:27:48.948Z,101000.0
2022-09-07T17:32:48.998Z,101000.0
2022-09-07T17:37:48.948Z,100990.0
2022-09-07T17:47:48.955Z,100980.0
2022-09-07T17:52:53.012Z,100970.0
2022-09-07T17:57:48.956Z,100970.0
2022-09-07T18:02:48.955Z,100960.0
2022-09-07T18:07:48.961Z,100970.0
2022-09-07T18:12:48.950Z,100970.0
2022-09-07T18:17:48.980Z,100980.0
2022-09-07T18:22:48.973Z,100990.0
2022-09-07T18:29:03.018Z,100990.0
2022-09-07T18:32:48.999Z,100990.0
2022-09-07T18:37:50.079Z,100990.0
2022-09-07T18:42:48.992Z,101000.0
2022-09-07T18:47:48.962Z,101000.0
2022-09-07T18:52:52.739Z,100990.0
2022-09-07T18:57:48.981Z,100980.0
2022-09-07T19:02:48.976Z,100990.0
2022-09-07T19:07:48.969Z,100990.0
2022-09-07T19:12:48.976Z,100990.0
2022-09-07T19:17:48.965Z,100980.0
2022-09-07T19:22:48.973Z,100990.0
2022-09-07T19:27:48.995Z,100980.0
2022-09-07T19:32:48.972Z,101000.0
2022-09-07T19:37:48.976Z,100990.0
2022-09-07T19:42:48.975Z,100980.0
2022-09-07T19:47:48.977Z,100990.0
2022-09-07T19:52:48.981Z,100990.0
2022-09-07T19:57:48.978Z,100980.0
2022-09-07T20:02:48.990Z,100980.0
2022-09-07T20:07:48.988Z,100970.0
2022-09-07T20:12:48.991Z,100970.0
2022-09-07T20:17:48.983Z,100970.0
2022-09-07T20:22:48.991Z,100960.0
2022-09-07T20:27:49.000Z,100960.0
2022-09-07T20:32:48.995Z,100960.0
2022-09-07T20:37:48.998Z,100950.0
2022-09-07T20:42:49.003Z,100940.0
2022-09-07T20:47:49.002Z,100930.0
2022-09-07T20:52:49.030Z,100930.0
2022-09-07T20:57:49.005Z,100930.0
2022-09-07T21:02:49.002Z,100920.0
2022-09-07T21:07:48.999Z,100930.0
2022-09-07T21:12:49.004Z,100920.0
2022-09-07T21:17:49.011Z,100920.0
2022-09-07T21:22:49.106Z,100910.0
2022-09-07T21:27:49.132Z,100920.0
2022-09-07T21:32:49.014Z,100910.0
2022-09-07T21:37:49.012Z,100900.0
2022-09-07T21:42:49.024Z,100900.0
2022-09-07T21:47:49.017Z,100910.0
2022-09-07T21:52:49.019Z,100900.0
2022-09-07T21:57:49.022Z,100900.0
2022-09-07T22:02:49.026Z,100900.0
2022-09-07T22:07:49.024Z,100890.0
2022-09-07T22:12:49.025Z,100890.0
2022-09-07T22:17:49.034Z,100890.0
2022-09-07T22:22:49.038Z,100880.0
2022-09-07T22:27:49.024Z,100890.0
2022-09-07T22:32:49.039Z,100890.0
2022-09-07T22:37:49.032Z,100890.0
2022-09-07T22:42:49.032Z,100880.0
2022-09-07T22:47:49.039Z,100880.0
2022-09-07T22:52:49.036Z,100870.0
2022-09-07T22:57:49.066Z,100870.0
2022-09-07T23:02:49.050Z,100870.0
2022-09-07T23:07:49.038Z,100860.0
2022-09-07T23:12:49.045Z,100860.0
2022-09-07T23:17:49.050Z,100860.0
2022-09-07T23:22:49.049Z,100840.0
2022-09-07T23:27:49.051Z,100850.0
2022-09-07T23:32:49.053Z,100850.0
2022-09-07T23:37:49.060Z,100860.0
2022-09-07T23:42:49.068Z,100870.0
2022-09-07T23:47:49.058Z,100900.0
2022-09-07T23:52:49.062Z,100910.0
2022-09-07T23:57:49.065Z,100900.0
